createdAt,value
2022-11-23T00:00:20.842Z,94.92
2022-11-23T00:02:48.637Z,94.85
2022-11-23T00:05:16.310Z,94.95
2022-11-23T00:07:44.045Z,95.25
2022-11-23T00:10:13.435Z,94.93
2022-11-23T00:12:41.092Z,95.38
2022-11-23T00:15:09.457Z,95.39
2022-11-23T00:17:37.066Z,95.16
2022-11-23T00:20:05.296Z,95.39
2022-11-23T00:22:32.955Z,95.46
2022-11-23T00:25:00.741Z,95.26
2022-11-23T00:27:29.830Z,95.30
2022-11-23T00:29:57.466Z,95.33
2022-11-23T00:32:25.127Z,95.47
2022-11-23T00:34:52.767Z,95.69
2022-11-23T00:37:20.427Z,95.80
2022-11-23T00:39:48.072Z,95.59
2022-11-23T00:42:15.748Z,95.73
2022-11-23T00:44:44.824Z,95.92
2022-11-23T00:47:12.474Z,95.80
2022-11-23T00:49:40.129Z,96.10
2022-11-23T00:52:07.821Z,95.97
2022-11-23T00:54:35.426Z,95.74
2022-11-23T00:57:03.073Z,95.58
2022-11-23T00:59:31.130Z,95.77
2022-11-23T01:02:00.586Z,95.66
2022-11-23T01:04:29.165Z,95.89
2022-11-23T01:06:58.068Z,96.04
2022-11-23T01:09:26.862Z,96.04
2022-11-23T01:11:55.203Z,95.64
2022-11-23T01:14:23.296Z,95.85
2022-11-23T01:16:51.065Z,95.99
2022-11-23T01:19:21.485Z,95.99
2022-11-23T01:21:49.448Z,96.03
2022-11-23T01:24:18.795Z,95.94
2022-11-23T01:26:46.727Z,95.77
2022-11-23T01:29:14.703Z,96.14
2022-11-23T01:31:46.601Z,96.14
2022-11-23T01:34:15.258Z,95.67
2022-11-23T01:36:45.238Z,95.93
2022-11-23T01:39:13.543Z,95.77
2022-11-23T01:41:43.360Z,95.67
2022-11-23T01:44:30.750Z,95.67
2022-11-23T01:46:59.972Z,95.93
2022-11-23T01:49:29.293Z,95.90
2022-11-23T01:52:00.847Z,96.23
2022-11-23T01:54:33.122Z,96.23
2022-11-23T01:57:03.516Z,96.04
2022-11-23T01:59:32.151Z,96.12
2022-11-23T02:02:00.666Z,96.39
2022-11-23T02:04:31.146Z,96.26
2022-11-23T02:07:01.486Z,96.19
2022-11-23T02:09:30.919Z,96.03
2022-11-23T02:11:59.009Z,96.02
2022-11-23T02:14:27.067Z,95.88
2022-11-23T02:16:54.757Z,96.03
2022-11-23T02:19:34.342Z,96.00
2022-11-23T02:22:03.762Z,96.13
2022-11-23T02:24:35.480Z,96.16
2022-11-23T02:27:06.945Z,96.15
2022-11-23T02:29:34.864Z,96.29
2022-11-23T02:32:02.579Z,95.86
2022-11-23T02:34:30.352Z,95.78
2022-11-23T02:36:58.797Z,95.74
2022-11-23T02:39:30.612Z,95.83
2022-11-23T02:41:59.453Z,95.79
2022-11-23T02:44:33.688Z,96.03
2022-11-23T02:47:01.474Z,95.79
2022-11-23T02:49:29.463Z,96.04
2022-11-23T02:51:57.369Z,96.05
2022-11-23T02:54:24.992Z,96.16
2022-11-23T02:56:52.689Z,95.85
2022-11-23T02:59:20.659Z,95.86
2022-11-23T03:01:50.336Z,96.11
2022-11-23T03:04:20.764Z,96.06
2022-11-23T03:06:50.889Z,96.02
2022-11-23T03:09:18.729Z,96.16
2022-11-23T03:11:46.368Z,95.90
2022-11-23T03:14:14.133Z,95.80
2022-11-23T03:16:41.825Z,95.71
2022-11-23T03:19:10.893Z,95.48
2022-11-23T03:21:38.658Z,95.75
2022-11-23T03:24:06.961Z,95.39
2022-11-23T03:26:34.672Z,95.48
2022-11-23T03:29:02.336Z,95.62
2022-11-23T03:31:29.999Z,95.36
2022-11-23T03:33:57.764Z,95.43
2022-11-23T03:36:26.834Z,95.16
2022-11-23T03:38:54.496Z,95.31
2022-11-23T03:41:22.209Z,95.11
2022-11-23T03:43:49.867Z,95.04
2022-11-23T03:46:17.591Z,94.99
2022-11-23T03:48:45.306Z,95.14
2022-11-23T03:51:13.001Z,95.00
2022-11-23T03:53:42.098Z,94.77
2022-11-23T03:56:09.985Z,94.91
2022-11-23T03:58:37.700Z,94.72
2022-11-23T04:01:05.378Z,94.33
2022-11-23T04:03:33.344Z,94.39
2022-11-23T04:06:01.069Z,94.17
2022-11-23T04:08:28.698Z,94.11
2022-11-23T04:10:59.133Z,93.77
2022-11-23T04:13:27.231Z,93.25
2022-11-23T04:15:54.874Z,93.20
2022-11-23T04:18:22.643Z,92.85
2022-11-23T04:20:50.363Z,92.82
2022-11-23T04:23:18.049Z,93.06
2022-11-23T04:25:46.474Z,92.87
2022-11-23T04:28:15.521Z,92.70
2022-11-23T04:30:43.209Z,92.68
2022-11-23T04:33:10.916Z,92.91
2022-11-23T04:35:38.617Z,92.72
2022-11-23T04:38:06.346Z,92.69
2022-11-23T04:40:34.193Z,92.71
2022-11-23T04:43:02.310Z,93.06
2022-11-23T04:45:31.403Z,92.88
2022-11-23T04:47:59.093Z,92.98
2022-11-23T04:50:26.749Z,93.08
2022-11-23T04:52:54.544Z,93.21
2022-11-23T04:55:22.283Z,92.98
2022-11-23T04:57:50.255Z,92.96
2022-11-23T05:00:18.568Z,93.05
2022-11-23T05:02:47.641Z,93.11
2022-11-23T05:05:15.448Z,92.78
2022-11-23T05:07:43.179Z,92.88
2022-11-23T05:10:11.229Z,92.88
2022-11-23T05:12:38.936Z,92.85
2022-11-23T05:15:07.468Z,92.88
2022-11-23T05:17:35.350Z,92.93
2022-11-23T05:20:05.175Z,93.01
2022-11-23T05:22:32.942Z,93.30
2022-11-23T05:25:00.805Z,93.05
2022-11-23T05:27:28.428Z,92.94
2022-11-23T05:29:56.093Z,93.30
2022-11-23T05:32:23.730Z,93.20
2022-11-23T05:34:51.472Z,93.15
2022-11-23T05:37:20.471Z,92.97
2022-11-23T05:39:48.087Z,93.05
2022-11-23T05:42:15.820Z,93.21
2022-11-23T05:44:43.480Z,93.07
2022-11-23T05:47:11.137Z,93.29
2022-11-23T05:49:38.788Z,93.10
2022-11-23T05:52:06.780Z,93.20
2022-11-23T05:54:36.229Z,93.15
2022-11-23T05:57:03.926Z,93.23
2022-11-23T05:59:32.037Z,93.24
2022-11-23T06:01:59.850Z,93.09
2022-11-23T06:04:27.605Z,93.03
2022-11-23T06:06:57.295Z,92.81
2022-11-23T06:09:24.958Z,92.83
2022-11-23T06:11:53.992Z,92.72
2022-11-23T06:14:21.676Z,92.42
2022-11-23T06:16:49.556Z,92.35
2022-11-23T06:19:17.316Z,92.28
2022-11-23T06:21:50.134Z,92.27
2022-11-23T06:24:18.099Z,91.97
2022-11-23T06:26:45.732Z,91.80
2022-11-23T06:29:16.208Z,91.91
2022-11-23T06:31:43.833Z,91.98
2022-11-23T06:34:11.541Z,91.82
2022-11-23T06:36:39.221Z,91.67
2022-11-23T06:39:07.086Z,91.86
2022-11-23T06:41:34.781Z,91.86
2022-11-23T06:44:02.562Z,92.08
2022-11-23T06:46:31.643Z,91.90
2022-11-23T06:48:59.432Z,91.94
2022-11-23T06:51:27.080Z,91.82
2022-11-23T06:53:55.173Z,91.75
2022-11-23T06:56:23.231Z,91.84
2022-11-23T06:58:50.933Z,91.60
2022-11-23T07:01:18.571Z,91.53
2022-11-23T07:03:47.757Z,91.39
2022-11-23T07:06:15.500Z,91.41
2022-11-23T07:08:44.267Z,91.45
2022-11-23T07:11:12.510Z,91.28
2022-11-23T07:13:40.450Z,91.23
2022-11-23T07:16:08.724Z,91.40
2022-11-23T07:18:36.381Z,91.23
2022-11-23T07:21:05.396Z,91.10
2022-11-23T07:23:33.092Z,91.15
2022-11-23T07:26:00.702Z,91.23
2022-11-23T07:28:28.318Z,91.46
2022-11-23T07:30:56.029Z,91.03
2022-11-23T07:33:23.636Z,90.69
2022-11-23T07:35:51.397Z,90.89
2022-11-23T07:38:20.353Z,91.10
2022-11-23T07:40:50.306Z,90.87
2022-11-23T07:43:17.919Z,90.87
2022-11-23T07:45:45.581Z,90.55
2022-11-23T07:48:13.565Z,90.75
2022-11-23T07:50:41.205Z,90.43
2022-11-23T07:53:09.166Z,90.49
2022-11-23T07:55:38.163Z,90.73
2022-11-23T07:58:06.482Z,90.36
2022-11-23T08:00:34.123Z,90.63
2022-11-23T08:03:26.568Z,90.69
2022-11-23T08:05:49.433Z,90.32
2022-11-23T08:08:17.078Z,90.46
2022-11-23T08:10:51.417Z,90.52
2022-11-23T08:13:20.883Z,90.26
2022-11-23T08:15:53.932Z,90.18
2022-11-23T08:18:23.056Z,90.33
2022-11-23T08:20:50.895Z,90.33
2022-11-23T08:23:18.696Z,90.41
2022-11-23T08:25:48.162Z,90.49
2022-11-23T08:28:15.874Z,90.71
2022-11-23T08:30:43.608Z,90.82
2022-11-23T08:33:11.303Z,90.90
2022-11-23T08:35:40.008Z,90.99
2022-11-23T08:38:09.027Z,91.18
2022-11-23T08:40:37.129Z,91.30
2022-11-23T08:43:06.589Z,91.17
2022-11-23T08:45:34.518Z,91.26
2022-11-23T08:48:02.503Z,91.08
2022-11-23T08:50:30.602Z,91.55
2022-11-23T08:52:58.986Z,91.39
2022-11-23T08:55:27.568Z,91.56
2022-11-23T08:57:56.124Z,91.59
2022-11-23T09:00:25.873Z,91.88
2022-11-23T09:02:53.582Z,92.28
2022-11-23T09:05:21.813Z,92.28
2022-11-23T09:07:49.587Z,91.88
2022-11-23T09:10:19.106Z,91.99
2022-11-23T09:12:47.190Z,91.80
2022-11-23T09:15:15.014Z,91.52
2022-11-23T09:17:44.531Z,90.55
2022-11-23T09:20:13.105Z,90.69
2022-11-23T09:22:40.729Z,90.92
2022-11-23T09:25:10.289Z,90.95
2022-11-23T09:27:38.065Z,90.43
2022-11-23T09:30:06.743Z,90.08
2022-11-23T09:32:34.397Z,90.11
2022-11-23T09:35:03.454Z,90.01
2022-11-23T09:37:31.165Z,90.16
2022-11-23T09:39:58.799Z,89.94
2022-11-23T09:42:38.550Z,89.87
2022-11-23T09:45:20.244Z,90.08
2022-11-23T09:48:00.942Z,89.52
2022-11-23T09:50:35.519Z,89.63
2022-11-23T09:53:07.008Z,88.55
2022-11-23T09:55:38.588Z,87.79
2022-11-23T09:58:07.381Z,87.21
2022-11-23T10:00:38.917Z,87.20
2022-11-23T10:03:06.577Z,86.68
2022-11-23T10:05:39.003Z,86.13
2022-11-23T10:08:12.918Z,85.16
2022-11-23T10:10:44.376Z,85.18
2022-11-23T10:14:01.101Z,84.51
2022-11-23T10:17:19.743Z,84.82
2022-11-23T10:19:58.375Z,84.25
2022-11-23T10:22:30.458Z,83.39
2022-11-23T10:24:58.053Z,82.20
2022-11-23T10:27:26.338Z,82.15
2022-11-23T10:29:56.405Z,81.37
2022-11-23T10:32:31.976Z,80.92
2022-11-23T10:35:04.328Z,80.30
2022-11-23T10:39:45.515Z,79.18
2022-11-23T10:42:20.138Z,79.37
2022-11-23T10:44:48.726Z,78.77
2022-11-23T10:47:35.091Z,77.62
2022-11-23T10:50:03.912Z,78.05
2022-11-23T10:52:32.883Z,76.97
2022-11-23T10:55:03.902Z,76.81
2022-11-23T10:57:33.842Z,77.18
2022-11-23T11:00:04.618Z,76.73
2022-11-23T11:02:39.545Z,76.03
2022-11-23T11:05:53.440Z,75.78
2022-11-23T11:08:16.923Z,75.40
2022-11-23T11:10:50.118Z,75.98
2022-11-23T11:13:29.850Z,75.31
2022-11-23T11:15:59.588Z,75.72
2022-11-23T11:18:32.380Z,74.59
2022-11-23T11:21:03.284Z,74.03
2022-11-23T11:23:32.079Z,73.24
2022-11-23T11:26:09.744Z,73.61
2022-11-23T11:28:40.314Z,74.34
2022-11-23T11:31:34.895Z,73.95
2022-11-23T11:34:09.287Z,73.29
2022-11-23T11:36:40.554Z,72.72
2022-11-23T11:39:20.709Z,73.74
2022-11-23T11:41:51.068Z,73.31
2022-11-23T11:44:21.540Z,72.60
2022-11-23T11:46:53.872Z,71.27
2022-11-23T11:49:56.317Z,69.63
2022-11-23T11:52:27.265Z,70.67
2022-11-23T11:54:57.632Z,70.76
2022-11-23T11:57:29.448Z,70.48
2022-11-23T12:02:36.154Z,70.79
2022-11-23T12:05:12.799Z,72.99
2022-11-23T12:07:45.522Z,70.81
2022-11-23T12:10:17.388Z,70.55
2022-11-23T12:12:45.263Z,71.21
2022-11-23T12:15:47.640Z,71.39
2022-11-23T12:18:26.951Z,71.36
2022-11-23T12:20:58.772Z,70.48
2022-11-23T12:23:34.863Z,70.07
2022-11-23T12:26:13.693Z,68.17
2022-11-23T12:29:00.199Z,69.12
2022-11-23T12:31:40.779Z,68.95
2022-11-23T12:34:17.744Z,68.14
2022-11-23T12:37:00.804Z,68.08
2022-11-23T12:39:43.354Z,67.89
2022-11-23T12:42:13.935Z,68.04
2022-11-23T12:44:54.451Z,67.77
2022-11-23T12:47:29.942Z,67.58
2022-11-23T12:50:04.675Z,68.17
2022-11-23T12:52:47.243Z,68.18
2022-11-23T12:55:20.504Z,67.47
2022-11-23T12:57:51.401Z,67.15
2022-11-23T13:00:20.877Z,68.38
2022-11-23T13:03:13.605Z,67.41
2022-11-23T13:10:14.146Z,67.74
2022-11-23T13:13:14.042Z,66.97
2022-11-23T13:16:02.605Z,67.03
2022-11-23T13:18:42.898Z,67.60
2022-11-23T13:21:18.926Z,68.29
2022-11-23T13:23:46.728Z,68.46
2022-11-23T13:26:17.759Z,67.66
2022-11-23T13:28:45.957Z,67.14
2022-11-23T13:31:27.764Z,67.33
2022-11-23T13:33:56.746Z,67.65
2022-11-23T13:37:15.292Z,67.27
2022-11-23T13:40:04.082Z,67.41
2022-11-23T13:42:34.983Z,66.78
2022-11-23T13:45:23.507Z,67.43
2022-11-23T13:48:34.342Z,67.75
2022-11-23T13:51:02.357Z,66.66
2022-11-23T13:53:32.516Z,67.00
2022-11-23T13:56:18.816Z,67.14
2022-11-23T13:58:55.684Z,66.94
2022-11-23T14:02:04.372Z,67.00
2022-11-23T14:04:33.068Z,66.60
2022-11-23T14:07:03.666Z,67.79
2022-11-23T14:09:35.656Z,67.27
2022-11-23T14:12:08.556Z,67.61
2022-11-23T14:14:48.369Z,66.86
2022-11-23T14:22:02.404Z,66.96
2022-11-23T14:26:29.775Z,66.50
2022-11-23T14:29:24.216Z,66.84
2022-11-23T14:32:00.969Z,66.33
2022-11-23T14:34:35.723Z,66.04
2022-11-23T14:37:09.441Z,67.10
2022-11-23T14:39:55.404Z,66.84
2022-11-23T14:42:26.492Z,67.16
2022-11-23T14:44:54.669Z,66.77
2022-11-23T14:47:30.372Z,66.72
2022-11-23T14:49:58.700Z,66.82
2022-11-23T14:52:28.524Z,66.68
2022-11-23T14:54:57.644Z,66.98
2022-11-23T14:57:29.158Z,67.22
2022-11-23T14:59:58.606Z,66.44
2022-11-23T15:02:32.506Z,67.07
2022-11-23T15:05:07.767Z,67.02
2022-11-23T15:07:44.831Z,66.85
2022-11-23T15:10:22.740Z,66.88
2022-11-23T15:12:51.804Z,66.58
2022-11-23T15:15:21.081Z,66.90
2022-11-23T15:17:52.950Z,67.27
2022-11-23T15:21:22.601Z,66.92
2022-11-23T15:23:54.296Z,66.55
2022-11-23T15:26:46.118Z,67.04
2022-11-23T15:29:33.519Z,67.28
2022-11-23T15:34:50.546Z,68.46
2022-11-23T15:37:20.011Z,69.25
2022-11-23T15:39:48.408Z,69.96
2022-11-23T15:42:18.599Z,70.54
2022-11-23T15:44:51.227Z,71.45
2022-11-23T15:47:22.852Z,71.98
2022-11-23T15:49:51.040Z,72.51
2022-11-23T15:53:55.488Z,72.97
2022-11-23T15:56:55.357Z,73.36
2022-11-23T15:59:31.585Z,74.18
2022-11-23T16:02:00.380Z,74.21
2022-11-23T16:04:36.504Z,74.79
2022-11-23T16:07:16.538Z,74.91
2022-11-23T16:09:52.358Z,74.98
2022-11-23T16:12:25.636Z,75.18
2022-11-23T16:14:54.128Z,75.60
2022-11-23T16:17:23.707Z,75.96
2022-11-23T16:19:52.743Z,76.24
2022-11-23T16:22:24.914Z,76.46
2022-11-23T16:24:55.495Z,76.81
2022-11-23T16:27:25.833Z,77.21
2022-11-23T16:29:57.586Z,77.34
2022-11-23T16:32:30.785Z,77.38
2022-11-23T16:35:00.499Z,77.55
2022-11-23T16:37:28.934Z,78.07
2022-11-23T16:39:56.969Z,78.15
2022-11-23T16:42:27.092Z,78.36
2022-11-23T16:44:54.800Z,78.38
2022-11-23T16:47:25.056Z,79.01
2022-11-23T16:49:53.636Z,79.10
2022-11-23T16:52:22.626Z,79.04
2022-11-23T16:54:50.496Z,78.93
2022-11-23T16:57:21.597Z,79.04
2022-11-23T16:59:50.980Z,79.03
2022-11-23T17:02:19.307Z,79.13
2022-11-23T17:04:47.128Z,79.30
2022-11-23T17:07:15.038Z,79.56
2022-11-23T17:12:00.059Z,79.92
2022-11-23T17:14:29.740Z,80.02
2022-11-23T17:17:02.233Z,80.03
2022-11-23T17:19:30.347Z,80.60
2022-11-23T17:21:58.446Z,80.54
2022-11-23T17:24:26.084Z,80.93
2022-11-23T17:26:54.267Z,81.07
2022-11-23T17:29:24.119Z,81.49
2022-11-23T17:31:52.103Z,81.15
2022-11-23T17:34:19.782Z,81.39
2022-11-23T17:36:48.621Z,81.51
2022-11-23T17:39:20.201Z,81.72
2022-11-23T17:41:49.135Z,81.68
2022-11-23T17:44:17.566Z,82.00
2022-11-23T17:46:47.203Z,82.03
2022-11-23T17:49:16.990Z,82.02
2022-11-23T17:51:44.621Z,82.20
2022-11-23T17:54:12.345Z,82.45
2022-11-23T17:56:40.053Z,82.73
2022-11-23T17:59:08.085Z,82.85
2022-11-23T18:01:35.947Z,82.67
2022-11-23T18:04:05.308Z,82.79
2022-11-23T18:06:33.048Z,83.23
2022-11-23T18:09:00.721Z,83.22
2022-11-23T18:11:28.824Z,83.33
2022-11-23T18:13:56.516Z,83.74
2022-11-23T18:16:24.354Z,83.85
2022-11-23T18:18:52.273Z,83.84
2022-11-23T18:21:21.323Z,84.18
2022-11-23T18:23:49.007Z,84.38
2022-11-23T18:26:21.306Z,84.37
2022-11-23T18:28:49.440Z,84.79
2022-11-23T18:31:17.155Z,85.30
2022-11-23T18:33:45.064Z,85.35
2022-11-23T18:36:13.172Z,85.68
2022-11-23T18:38:44.753Z,85.79
2022-11-23T18:41:13.177Z,86.16
2022-11-23T18:43:40.886Z,86.31
2022-11-23T18:46:10.210Z,86.16
2022-11-23T18:48:38.524Z,86.28
2022-11-23T18:51:11.525Z,86.69
2022-11-23T18:53:39.146Z,86.59
2022-11-23T18:56:09.947Z,86.62
2022-11-23T18:58:39.360Z,86.68
2022-11-23T19:01:12.660Z,86.48
2022-11-23T19:03:41.884Z,86.53
2022-11-23T19:06:11.875Z,86.73
2022-11-23T19:08:40.068Z,86.68
2022-11-23T19:11:12.781Z,86.27
2022-11-23T19:13:40.919Z,86.48
2022-11-23T19:16:10.538Z,86.39
2022-11-23T19:18:38.452Z,86.56
2022-11-23T19:21:13.682Z,86.23
2022-11-23T19:23:41.450Z,86.58
2022-11-23T19:26:10.601Z,86.31
2022-11-23T19:28:38.649Z,86.32
2022-11-23T19:31:14.007Z,86.34
2022-11-23T19:33:42.013Z,86.32
2022-11-23T19:36:11.541Z,86.12
2022-11-23T19:38:39.567Z,86.33
2022-11-23T19:41:07.728Z,86.30
2022-11-23T19:43:37.209Z,86.23
2022-11-23T19:46:07.241Z,86.21
2022-11-23T19:48:35.267Z,86.25
2022-11-23T19:51:04.625Z,86.36
2022-11-23T19:53:33.951Z,86.22
2022-11-23T19:56:03.104Z,86.44
2022-11-23T19:58:35.339Z,86.24
2022-11-23T20:01:06.412Z,86.61
2022-11-23T20:03:35.705Z,86.35
2022-11-23T20:06:06.009Z,86.14
2022-11-23T20:08:33.843Z,86.40
2022-11-23T20:11:07.535Z,86.57
2022-11-23T20:13:36.027Z,86.58
2022-11-23T20:16:06.625Z,86.32
2022-11-23T20:18:34.595Z,86.20
2022-11-23T20:21:02.868Z,86.33
2022-11-23T20:23:30.835Z,86.42
2022-11-23T20:25:59.056Z,86.41
2022-11-23T20:28:27.109Z,86.35
2022-11-23T20:30:54.860Z,86.37
2022-11-23T20:33:23.940Z,86.43
2022-11-23T20:35:51.888Z,86.11
2022-11-23T20:38:19.690Z,86.20
2022-11-23T20:40:47.458Z,86.08
2022-11-23T20:43:15.482Z,86.34
2022-11-23T20:45:43.184Z,86.56
2022-11-23T20:48:10.864Z,86.72
2022-11-23T20:50:39.972Z,86.94
2022-11-23T20:53:07.747Z,87.03
2022-11-23T20:55:36.569Z,86.61
2022-11-23T20:58:04.329Z,86.98
2022-11-23T21:00:32.143Z,86.76
2022-11-23T21:02:59.886Z,86.25
2022-11-23T21:05:27.744Z,86.61
2022-11-23T21:13:03.683Z,86.22
2022-11-23T21:15:31.367Z,86.22
2022-11-23T21:17:58.959Z,86.13
2022-11-23T21:20:26.647Z,86.03
2022-11-23T21:22:54.304Z,86.18
2022-11-23T21:25:21.925Z,85.88
2022-11-23T21:27:50.985Z,85.82
2022-11-23T21:30:18.915Z,85.78
2022-11-23T21:32:50.482Z,86.04
2022-11-23T21:35:18.149Z,85.94
2022-11-23T21:37:45.781Z,86.05
2022-11-23T21:40:13.601Z,86.16
2022-11-23T21:42:41.226Z,85.82
2022-11-23T21:45:10.926Z,86.16
2022-11-23T21:47:38.617Z,86.31
2022-11-23T21:50:06.951Z,86.56
2022-11-23T21:52:34.585Z,86.74
2022-11-23T21:55:02.257Z,86.50
2022-11-23T21:57:29.960Z,86.52
2022-11-23T21:59:57.796Z,86.50
2022-11-23T22:02:27.081Z,86.58
2022-11-23T22:04:55.013Z,86.52
2022-11-23T22:07:22.807Z,86.51
2022-11-23T22:09:50.712Z,86.47
2022-11-23T22:12:18.501Z,86.69
2022-11-23T22:14:46.239Z,87.06
2022-11-23T22:17:14.002Z,86.63
2022-11-23T22:19:43.149Z,86.58
2022-11-23T22:22:10.901Z,86.68
2022-11-23T22:24:38.623Z,86.87
2022-11-23T22:27:06.400Z,87.00
2022-11-23T22:29:34.206Z,86.95
2022-11-23T22:32:02.304Z,86.59
2022-11-23T22:34:33.523Z,86.88
2022-11-23T22:37:07.247Z,86.48
2022-11-23T22:39:38.215Z,86.28
2022-11-23T22:42:06.204Z,86.65
2022-11-23T22:44:34.267Z,86.47
2022-11-23T22:47:02.206Z,86.40
2022-11-23T22:49:29.982Z,86.30
2022-11-23T22:51:58.000Z,86.46
2022-11-23T22:54:28.778Z,86.29
2022-11-23T22:56:56.550Z,86.15
2022-11-23T22:59:24.263Z,86.46
2022-11-23T23:01:52.029Z,86.61
2022-11-23T23:04:19.766Z,86.31
2022-11-23T23:06:48.885Z,86.53
2022-11-23T23:09:16.920Z,86.36
2022-11-23T23:11:46.090Z,86.15
2022-11-23T23:14:13.847Z,86.60
2022-11-23T23:16:41.634Z,86.27
2022-11-23T23:19:09.581Z,86.47
2022-11-23T23:21:37.332Z,86.50
2022-11-23T23:24:05.703Z,86.31
2022-11-23T23:26:33.503Z,86.08
2022-11-23T23:29:02.713Z,86.27
2022-11-23T23:31:30.944Z,86.12
2022-11-23T23:34:01.014Z,85.66
2022-11-23T23:36:29.559Z,85.85
2022-11-23T23:38:57.814Z,86.07
2022-11-23T23:41:25.581Z,86.24
2022-11-23T23:43:53.538Z,86.23
2022-11-23T23:46:22.882Z,86.25
2022-11-23T23:48:50.933Z,86.25
2022-11-23T23:51:20.815Z,86.49
2022-11-23T23:53:48.897Z,86.25
2022-11-23T23:56:18.040Z,86.38
2022-11-23T23:58:46.284Z,86.04
